Time;durP1;ratioP1;P1;durP2;ratioP2;P2;SDS_P1;SDS_P2;PMS_P1;PMS_P2;Temp;Humidity;BMP_temperature;BMP_pressure;BME280_temperature;BME280_humidity;BME280_pressure;Samples;Min_cycle;Max_cycle;Signal;HPM_P1;HPM_P2
2023/06/22 00:02:32;;;;;;;10.70;4.40;;;23.30;99.90;;;;;;5009953;28;20388;-85
2023/06/22 00:05:36;;;;;;;8.45;4.57;;;23.30;99.90;;;;;;5011135;28;20057;-84
2023/06/22 00:08:41;;;;;;;10.20;5.03;;;23.20;99.90;;;;;;5011408;28;20496;-84
2023/06/22 00:11:44;;;;;;;9.93;5.35;;;23.10;99.90;;;;;;5010638;28;20044;-85
2023/06/22 00:14:49;;;;;;;9.35;5.22;;;23.10;99.90;;;;;;5010142;28;20045;-84
2023/06/22 00:17:53;;;;;;;12.60;5.70;;;23.10;99.90;;;;;;5010663;28;20496;-84
2023/06/22 00:20:58;;;;;;;15.02;6.70;;;23.10;99.90;;;;;;5010885;28;20270;-85
2023/06/22 00:24:02;;;;;;;11.38;6.07;;;23.10;99.90;;;;;;5010130;28;20037;-85
2023/06/22 00:27:06;;;;;;;17.30;6.72;;;23.00;99.90;;;;;;5010990;28;20094;-85
2023/06/22 00:30:10;;;;;;;8.52;5.90;;;23.00;99.90;;;;;;5010072;28;20045;-86
2023/06/22 00:33:15;;;;;;;16.80;6.35;;;22.90;99.90;;;;;;5010930;28;20049;-86
2023/06/22 00:36:20;;;;;;;10.77;5.97;;;22.90;99.90;;;;;;5010916;28;20064;-85
2023/06/22 00:39:24;;;;;;;12.10;5.53;;;22.90;99.90;;;;;;5011170;28;20044;-85
2023/06/22 00:42:28;;;;;;;11.88;5.90;;;22.80;99.90;;;;;;5010474;28;20041;-86
2023/06/22 00:45:32;;;;;;;11.85;5.35;;;22.70;99.90;;;;;;5009777;28;20061;-86
2023/06/22 00:48:36;;;;;;;7.57;5.20;;;22.70;99.90;;;;;;5011150;28;20057;-86
2023/06/22 00:51:47;;;;;;;14.93;5.85;;;22.70;99.90;;;;;;5009543;28;20516;-86
2023/06/22 00:54:52;;;;;;;9.07;5.18;;;22.70;99.90;;;;;;5010846;28;20044;-86
2023/06/22 00:57:56;;;;;;;8.88;5.05;;;22.60;99.90;;;;;;5009943;28;20047;-86
2023/06/22 01:01:01;;;;;;;13.45;6.20;;;22.60;99.90;;;;;;5010384;28;20053;-85
2023/06/22 01:04:05;;;;;;;11.02;6.15;;;22.60;99.90;;;;;;5011007;28;20508;-87
2023/06/22 01:07:34;;;;;;;14.77;5.90;;;22.50;99.90;;;;;;4998909;28;20049;-85
2023/06/22 01:10:58;;;;;;;8.77;5.68;;;22.50;99.90;;;;;;5010729;28;20068;-86
2023/06/22 01:14:11;;;;;;;10.48;6.07;;;22.50;99.90;;;;;;5010727;28;20048;-86
2023/06/22 01:17:16;;;;;;;11.18;6.43;;;22.40;99.90;;;;;;5010415;28;20041;-85
2023/06/22 01:20:22;;;;;;;13.65;6.38;;;22.40;99.90;;;;;;5010507;28;20500;-85
2023/06/22 01:24:07;;;;;;;12.05;6.50;;;22.30;99.90;;;;;;5010204;28;20041;-85
2023/06/22 01:27:31;;;;;;;8.93;5.90;;;22.30;99.90;;;;;;5012974;28;20396;-85
2023/06/22 01:30:35;;;;;;;12.43;6.40;;;22.20;99.90;;;;;;5013275;28;20048;-85
2023/06/22 01:33:44;;;;;;;12.77;6.60;;;22.10;99.90;;;;;;5001835;28;20049;-84
2023/06/22 01:36:52;;;;;;;14.35;6.75;;;22.10;99.90;;;;;;5012699;28;20057;-85
2023/06/22 01:39:57;;;;;;;11.23;6.22;;;22.00;99.90;;;;;;5013963;28;20048;-86
2023/06/22 01:43:03;;;;;;;9.40;6.40;;;22.00;99.90;;;;;;5013517;28;20037;-85
2023/06/22 01:46:07;;;;;;;9.95;6.40;;;21.90;99.90;;;;;;5012786;28;20044;-85
2023/06/22 01:49:12;;;;;;;13.05;6.45;;;21.90;99.90;;;;;;5013764;28;20049;-85
2023/06/22 01:52:17;;;;;;;13.07;7.00;;;21.80;99.90;;;;;;5013471;28;20501;-84
2023/06/22 01:55:21;;;;;;;17.38;6.63;;;21.80;99.90;;;;;;5014035;28;20053;-86
2023/06/22 01:58:29;;;;;;;13.63;7.03;;;21.80;99.90;;;;;;5013955;28;20509;-86
2023/06/22 02:01:42;;;;;;;11.75;7.53;;;21.80;99.90;;;;;;5012624;28;20118;-85
2023/06/22 02:04:47;;;;;;;15.55;7.82;;;21.80;99.90;;;;;;5013619;28;20508;-87
2023/06/22 02:08:16;;;;;;;11.98;7.20;;;21.70;99.90;;;;;;5013957;28;20049;-86
2023/06/22 02:11:22;;;;;;;10.18;6.40;;;21.70;99.90;;;;;;5014224;28;20053;-85
2023/06/22 02:14:28;;;;;;;11.23;6.78;;;21.60;99.90;;;;;;5013082;28;20051;-85
2023/06/22 02:17:33;;;;;;;10.25;7.00;;;21.60;99.90;;;;;;5012224;28;20044;-85
2023/06/22 02:20:39;;;;;;;13.70;6.75;;;21.60;99.90;;;;;;5012542;28;20052;-85
2023/06/22 02:23:43;;;;;;;15.10;7.78;;;21.60;99.90;;;;;;5012710;28;20037;-85
2023/06/22 02:26:47;;;;;;;15.77;7.40;;;21.60;99.90;;;;;;5013099;28;20065;-84
2023/06/22 02:29:51;;;;;;;14.98;8.20;;;21.50;99.90;;;;;;5012253;28;20052;-84
2023/06/22 02:32:58;;;;;;;11.95;7.25;;;21.40;99.90;;;;;;5011949;28;20040;-85
2023/06/22 02:36:08;;;;;;;12.73;7.82;;;21.40;99.90;;;;;;5000290;28;20508;-85
2023/06/22 02:39:12;;;;;;;16.00;7.93;;;21.30;99.90;;;;;;5012750;28;20053;-84
2023/06/22 02:42:20;;;;;;;14.13;6.97;;;21.20;99.90;;;;;;5012316;28;20049;-84
2023/06/22 02:45:24;;;;;;;13.70;7.45;;;21.20;99.90;;;;;;5012936;28;20040;-84
2023/06/22 02:48:29;;;;;;;14.15;7.60;;;21.10;99.90;;;;;;5011881;28;20040;-85
2023/06/22 02:51:34;;;;;;;14.90;8.00;;;21.10;99.90;;;;;;5012233;28;20499;-86
2023/06/22 02:54:38;;;;;;;13.88;7.07;;;21.10;99.90;;;;;;5011736;28;20049;-85
2023/06/22 02:57:44;;;;;;;22.15;8.93;;;21.10;99.90;;;;;;5011730;28;20069;-85
2023/06/22 03:00:48;;;;;;;16.48;8.50;;;21.00;99.90;;;;;;5011885;28;20044;-84
2023/06/22 03:03:52;;;;;;;19.35;10.00;;;21.00;99.90;;;;;;5000363;28;20488;-85
2023/06/22 03:06:56;;;;;;;12.77;9.43;;;20.90;99.90;;;;;;5011479;28;20504;-85
2023/06/22 03:10:00;;;;;;;15.32;8.18;;;20.90;99.90;;;;;;5001119;28;20053;-85
2023/06/22 03:13:04;;;;;;;13.80;8.25;;;20.90;99.90;;;;;;5000520;28;20037;-85
2023/06/22 03:16:08;;;;;;;12.77;8.30;;;20.90;99.90;;;;;;5011648;28;20041;-85
2023/06/22 03:19:13;;;;;;;13.13;8.02;;;20.80;99.90;;;;;;5011389;28;20049;-85
2023/06/22 03:22:17;;;;;;;17.67;8.55;;;20.70;99.90;;;;;;5011590;28;20403;-85
2023/06/22 03:25:21;;;;;;;11.18;8.05;;;20.70;99.90;;;;;;5012064;28;20048;-84
2023/06/22 03:28:27;;;;;;;18.23;9.10;;;20.60;99.90;;;;;;5011442;28;20057;-85
2023/06/22 03:31:31;;;;;;;16.90;8.82;;;20.50;99.90;;;;;;5012377;28;20049;-86
2023/06/22 03:34:38;;;;;;;18.00;8.80;;;20.50;99.90;;;;;;5012138;28;20045;-86
2023/06/22 03:37:42;;;;;;;19.75;9.02;;;20.40;99.90;;;;;;5011437;28;20496;-86
2023/06/22 03:40:46;;;;;;;16.85;8.88;;;20.30;99.90;;;;;;5010932;28;20049;-86
2023/06/22 03:43:50;;;;;;;16.77;9.52;;;20.30;99.90;;;;;;5012103;28;20045;-85
2023/06/22 03:46:54;;;;;;;13.98;9.35;;;20.20;99.90;;;;;;5011567;28;20066;-84
2023/06/22 03:49:58;;;;;;;21.15;9.60;;;20.20;99.90;;;;;;5011796;28;20041;-84
2023/06/22 03:53:02;;;;;;;14.73;8.48;;;20.20;99.90;;;;;;5011042;28;20057;-83
2023/06/22 03:56:06;;;;;;;16.67;8.90;;;20.20;99.90;;;;;;5011240;28;20045;-83
2023/06/22 03:59:10;;;;;;;15.38;8.98;;;20.30;99.90;;;;;;5011187;28;20049;-85
2023/06/22 04:02:14;;;;;;;16.33;9.00;;;20.30;99.90;;;;;;5010992;28;20041;-85
2023/06/22 04:05:19;;;;;;;14.40;8.18;;;20.40;99.90;;;;;;5010851;28;20041;-84
2023/06/22 04:08:23;;;;;;;15.30;7.65;;;20.40;99.90;;;;;;5011427;28;20389;-85
2023/06/22 04:11:27;;;;;;;17.33;7.40;;;20.50;99.90;;;;;;5010934;28;20049;-84
2023/06/22 04:14:30;;;;;;;14.60;6.60;;;20.60;99.90;;;;;;5010063;28;20396;-84
2023/06/22 04:17:35;;;;;;;10.52;6.68;;;20.60;99.90;;;;;;5011001;28;20048;-84
2023/06/22 04:20:39;;;;;;;12.23;6.90;;;20.80;99.90;;;;;;5010967;28;20064;-84
2023/06/22 04:23:43;;;;;;;10.70;6.57;;;20.90;99.90;;;;;;5011057;28;20045;-84
2023/06/22 04:26:47;;;;;;;12.30;6.35;;;21.10;99.90;;;;;;5010873;28;21340;-85
2023/06/22 04:29:52;;;;;;;14.35;5.93;;;21.40;99.90;;;;;;5011161;28;20393;-84
2023/06/22 04:32:57;;;;;;;10.57;6.10;;;21.50;99.90;;;;;;5010708;28;20045;-86
2023/06/22 04:36:03;;;;;;;11.73;5.97;;;21.80;99.90;;;;;;5015678;28;20169;-85
2023/06/22 04:39:09;;;;;;;19.75;6.20;;;22.00;99.90;;;;;;5011126;28;20125;-85
2023/06/22 04:42:13;;;;;;;9.23;5.10;;;22.20;99.90;;;;;;5012043;28;20503;-84
2023/06/22 04:45:17;;;;;;;8.50;4.70;;;22.40;99.90;;;;;;5011221;28;20451;-84
2023/06/22 04:48:21;;;;;;;12.13;6.30;;;22.80;99.90;;;;;;5011160;28;20520;-83
2023/06/22 04:51:30;;;;;;;11.98;5.20;;;23.10;99.90;;;;;;5011740;28;20405;-84
2023/06/22 04:54:36;;;;;;;12.70;5.85;;;23.10;99.90;;;;;;5011635;28;20048;-84
2023/06/22 04:57:40;;;;;;;10.07;5.93;;;23.00;99.90;;;;;;5012126;28;20045;-84
2023/06/22 05:00:44;;;;;;;10.25;6.65;;;23.20;99.90;;;;;;5013182;28;20041;-85
2023/06/22 05:03:48;;;;;;;10.93;6.72;;;23.60;99.90;;;;;;5015670;28;20410;-85
2023/06/22 05:06:53;;;;;;;12.02;6.35;;;24.30;99.90;;;;;;5015871;28;20040;-85
2023/06/22 05:09:57;;;;;;;6.95;4.95;;;24.90;99.90;;;;;;5003075;28;20045;-85
2023/06/22 05:13:01;;;;;;;14.70;6.55;;;25.60;99.90;;;;;;5014739;28;20049;-85
2023/06/22 05:16:05;;;;;;;9.45;5.53;;;25.90;99.90;;;;;;5015131;28;20400;-85
2023/06/22 05:19:09;;;;;;;12.15;6.72;;;26.30;99.90;;;;;;5015146;28;20409;-85
2023/06/22 05:22:17;;;;;;;13.07;6.93;;;26.80;99.90;;;;;;5014931;28;20045;-85
2023/06/22 05:25:21;;;;;;;10.77;6.18;;;27.20;99.90;;;;;;5015523;28;20117;-85
2023/06/22 05:28:26;;;;;;;13.43;6.85;;;27.60;99.90;;;;;;5015706;28;20048;-85
2023/06/22 05:31:30;;;;;;;14.30;7.55;;;28.10;99.90;;;;;;5015118;28;20057;-85
2023/06/22 05:34:34;;;;;;;10.45;7.10;;;27.20;99.90;;;;;;5024182;28;20061;-84
2023/06/22 05:37:38;;;;;;;20.05;8.82;;;25.90;99.90;;;;;;5015225;28;20053;-85
2023/06/22 05:40:42;;;;;;;17.73;8.15;;;25.50;99.90;;;;;;5014386;28;20528;-85
2023/06/22 05:43:46;;;;;;;17.88;9.00;;;25.80;99.90;;;;;;5015299;28;20424;-85
2023/06/22 05:46:50;;;;;;;19.60;8.65;;;26.30;99.90;;;;;;5015326;28;20045;-84
2023/06/22 05:49:53;;;;;;;13.88;8.30;;;26.20;99.90;;;;;;5015074;28;20053;-84
2023/06/22 05:52:57;;;;;;;17.58;7.90;;;26.50;99.90;;;;;;5014234;28;20053;-84
2023/06/22 05:56:02;;;;;;;11.85;7.20;;;26.20;99.90;;;;;;5014098;28;20049;-85
2023/06/22 05:59:05;;;;;;;9.52;6.57;;;26.80;99.90;;;;;;5014577;28;20041;-84
2023/06/22 06:02:09;;;;;;;10.85;6.65;;;27.40;99.90;;;;;;5002848;28;20037;-84
2023/06/22 06:05:14;;;;;;;11.70;6.30;;;27.20;99.90;;;;;;5010570;28;20040;-85
2023/06/22 06:08:18;;;;;;;18.48;7.43;;;27.10;99.90;;;;;;5011766;28;20049;-85
2023/06/22 06:11:23;;;;;;;13.13;6.53;;;27.10;99.90;;;;;;5006516;28;20049;-84
2023/06/22 06:14:27;;;;;;;14.15;6.82;;;27.40;99.90;;;;;;5011163;28;20512;-84
2023/06/22 06:17:31;;;;;;;13.50;7.03;;;27.90;99.90;;;;;;5014350;28;20041;-85
2023/06/22 06:21:31;;;;;;;11.60;6.32;;;28.30;99.90;;;;;;5011103;28;20050;-84
2023/06/22 06:24:34;;;;;;;8.75;5.97;;;29.00;99.90;;;;;;5011978;28;20045;-85
2023/06/22 06:27:38;;;;;;;11.30;5.72;;;28.80;99.90;;;;;;5010727;28;20041;-84
2023/06/22 06:30:43;;;;;;;11.18;6.10;;;28.70;99.90;;;;;;5008659;28;20049;-85
2023/06/22 06:33:47;;;;;;;11.38;6.60;;;28.00;99.90;;;;;;5009334;28;20065;-84
2023/06/22 06:36:51;;;;;;;10.30;5.88;;;27.60;99.90;;;;;;5017181;28;20052;-84
2023/06/22 06:39:55;;;;;;;10.48;6.13;;;28.20;99.90;;;;;;5003829;28;20048;-84
2023/06/22 06:42:59;;;;;;;11.48;6.03;;;28.60;99.90;;;;;;5001319;28;20045;-83
2023/06/22 06:46:05;;;;;;;8.80;5.55;;;27.90;99.90;;;;;;5021990;28;20061;-85
2023/06/22 06:49:09;;;;;;;8.48;6.35;;;28.20;99.90;;;;;;5010584;28;20053;-83
2023/06/22 06:52:13;;;;;;;12.52;5.85;;;29.60;99.90;;;;;;5004429;28;20131;-84
2023/06/22 06:55:17;;;;;;;10.80;5.45;;;30.40;99.90;;;;;;5016933;28;20056;-85
2023/06/22 06:58:22;;;;;;;14.23;5.53;;;31.50;99.90;;;;;;4994072;28;20404;-84
2023/06/22 07:01:26;;;;;;;9.90;5.68;;;32.10;99.90;;;;;;5004886;28;20045;-83
2023/06/22 07:04:30;;;;;;;10.63;5.43;;;31.60;99.90;;;;;;5003408;28;20049;-85
2023/06/22 07:07:35;;;;;;;11.07;5.25;;;31.90;99.90;;;;;;5010727;28;20684;-84
2023/06/22 07:10:39;;;;;;;10.05;5.10;;;32.20;99.90;;;;;;5006030;28;20037;-89
2023/06/22 07:13:46;;;;;;;11.32;5.78;;;33.40;99.10;;;;;;5012957;28;20393;-84
2023/06/22 07:16:50;;;;;;;10.32;5.47;;;33.70;98.70;;;;;;5009026;28;20064;-87
2023/06/22 07:19:59;;;;;;;13.52;6.00;;;32.70;98.90;;;;;;5009614;28;20049;-87
2023/06/22 07:23:03;;;;;;;13.52;5.80;;;32.00;98.90;;;;;;5008540;28;20049;-86
2023/06/22 07:26:08;;;;;;;10.13;6.07;;;32.80;98.60;;;;;;4999356;28;20115;-90
2023/06/22 07:29:22;;;;;;;8.52;6.30;;;31.50;98.30;;;;;;5011561;28;20052;-85
2023/06/22 07:32:28;;;;;;;17.02;6.95;;;30.10;99.90;;;;;;4989532;28;20044;-84
2023/06/22 07:35:33;;;;;;;8.48;5.40;;;31.60;99.70;;;;;;5007304;28;20053;-86
2023/06/22 07:38:37;;;;;;;9.65;5.20;;;32.60;98.90;;;;;;4999182;28;20045;-88
2023/06/22 07:41:41;;;;;;;8.18;5.75;;;33.30;98.20;;;;;;5012545;28;20033;-91
2023/06/22 07:44:45;;;;;;;11.75;5.40;;;31.40;98.60;;;;;;5012635;28;20641;-86
2023/06/22 07:47:49;;;;;;;8.90;5.95;;;31.70;98.40;;;;;;5011139;28;20117;-87
2023/06/22 07:50:53;;;;;;;9.38;5.43;;;29.10;99.90;;;;;;5011347;28;20100;-88
2023/06/22 07:53:57;;;;;;;16.02;6.38;;;30.10;99.90;;;;;;4997454;28;20509;-83
2023/06/22 07:57:03;;;;;;;14.63;5.25;;;30.70;99.40;;;;;;5007636;28;20384;-85
2023/06/22 08:00:14;;;;;;;12.65;6.72;;;31.30;98.70;;;;;;5014580;28;20511;-84
2023/06/22 08:03:18;;;;;;;11.77;6.20;;;30.70;99.00;;;;;;5010959;28;20044;-87
2023/06/22 08:06:22;;;;;;;13.90;7.22;;;31.40;98.10;;;;;;5007332;28;20033;-83
2023/06/22 08:09:31;;;;;;;7.57;6.47;;;30.90;98.30;;;;;;5020221;28;20041;-89
2023/06/22 08:12:35;;;;;;;9.63;7.25;;;31.40;98.90;;;;;;5008842;28;20044;-88
2023/06/22 08:15:39;;;;;;;13.25;7.10;;;32.90;97.90;;;;;;5010698;28;20052;-86
2023/06/22 08:18:44;;;;;;;12.50;7.35;;;33.60;96.90;;;;;;4990381;28;20044;-87
2023/06/22 08:21:49;;;;;;;10.25;6.78;;;34.50;96.80;;;;;;4998322;28;20049;-88
2023/06/22 08:24:53;;;;;;;13.15;7.30;;;34.10;97.00;;;;;;5006729;28;20041;-92
2023/06/22 08:27:57;;;;;;;10.52;6.35;;;34.90;96.70;;;;;;5000180;28;20506;-84
2023/06/22 08:31:02;;;;;;;13.43;6.70;;;35.60;96.10;;;;;;5009149;28;20044;-82
2023/06/22 08:34:06;;;;;;;9.65;5.85;;;35.10;96.30;;;;;;5012655;28;20049;-90
2023/06/22 08:37:12;;;;;;;16.95;6.10;;;36.10;96.10;;;;;;5012117;28;20495;-88
2023/06/22 08:40:16;;;;;;;9.32;5.55;;;36.80;95.20;;;;;;5017408;28;20096;-88
2023/06/22 08:43:19;;;;;;;16.20;6.00;;;35.60;96.00;;;;;;5012240;28;20045;-91
2023/06/22 08:46:29;;;;;;;10.52;5.88;;;33.90;96.80;;;;;;5016000;28;20397;-90
2023/06/22 08:49:33;;;;;;;7.97;5.40;;;35.20;96.40;;;;;;5017859;28;20064;-89
2023/06/22 08:52:41;;;;;;;13.75;6.60;;;37.40;95.50;;;;;;5016649;28;20045;-86
2023/06/22 08:55:45;;;;;;;10.15;5.50;;;38.90;94.20;;;;;;5031444;28;20044;-89
2023/06/22 08:58:49;;;;;;;9.10;5.82;;;39.20;94.00;;;;;;5026246;28;20129;-90
2023/06/22 09:01:53;;;;;;;8.30;5.25;;;36.00;94.70;;;;;;5006215;28;20045;-84
2023/06/22 09:04:58;;;;;;;9.73;5.20;;;37.00;95.40;;;;;;5026397;28;20040;-88
2023/06/22 09:08:03;;;;;;;10.40;4.95;;;39.30;93.90;;;;;;5011354;28;20041;-85
2023/06/22 09:11:07;;;;;;;12.10;4.90;;;40.40;93.40;;;;;;5014814;28;20053;-89
2023/06/22 09:14:11;;;;;;;9.63;5.30;;;40.20;92.50;;;;;;5013141;28;20045;-86
2023/06/22 09:17:16;;;;;;;11.63;4.72;;;41.40;91.70;;;;;;5010264;28;20048;-85
2023/06/22 09:20:20;;;;;;;6.95;4.53;;;42.80;91.00;;;;;;5015970;28;20057;-89
2023/06/22 09:23:24;;;;;;;7.82;4.32;;;43.70;89.20;;;;;;5013833;28;20044;-88
2023/06/22 09:26:28;;;;;;;10.82;4.60;;;43.20;88.90;;;;;;5015177;28;20052;-82
2023/06/22 09:29:35;;;;;;;7.88;4.60;;;43.20;89.60;;;;;;4985498;28;20049;-90
2023/06/22 09:32:39;;;;;;;5.18;4.38;;;41.10;90.50;;;;;;5013964;28;20057;-89
2023/06/22 09:35:43;;;;;;;12.55;4.82;;;43.00;89.30;;;;;;5010101;28;20049;-85
2023/06/22 09:38:48;;;;;;;10.25;4.38;;;39.10;90.70;;;;;;5010388;28;20052;-87
2023/06/22 09:41:53;;;;;;;14.82;4.47;;;41.50;90.50;;;;;;5014984;28;20053;-85
2023/06/22 09:44:57;;;;;;;5.20;4.35;;;42.70;88.10;;;;;;5009825;28;20504;-86
2023/06/22 09:48:01;;;;;;;14.18;4.70;;;43.60;87.70;;;;;;5004474;28;20046;-86
2023/06/22 09:51:05;;;;;;;8.00;4.28;;;42.90;88.90;;;;;;5009901;28;20065;-83
2023/06/22 09:54:09;;;;;;;9.02;4.53;;;43.50;87.80;;;;;;5010421;28;20040;-84
2023/06/22 09:57:13;;;;;;;10.23;4.40;;;39.30;89.30;;;;;;5013019;28;20045;-86
2023/06/22 10:00:19;;;;;;;6.75;3.90;;;40.00;90.40;;;;;;5010111;28;20397;-86
2023/06/22 10:03:23;;;;;;;9.38;4.47;;;41.00;90.30;;;;;;5008037;28;20033;-85
2023/06/22 10:06:28;;;;;;;10.98;4.90;;;41.40;88.60;;;;;;5010170;28;20057;-86
2023/06/22 10:09:32;;;;;;;8.50;4.07;;;40.40;87.50;;;;;;5007995;28;20041;-85
2023/06/22 10:12:36;;;;;;;8.55;4.35;;;41.40;88.50;;;;;;5015887;28;20049;-86
2023/06/22 10:15:41;;;;;;;10.13;4.03;;;42.20;90.70;;;;;;5009189;28;20045;-84
2023/06/22 10:18:45;;;;;;;11.70;4.05;;;44.30;84.00;;;;;;5008847;28;20044;-85
2023/06/22 10:21:49;;;;;;;5.60;3.65;;;43.60;82.90;;;;;;5001373;28;20049;-83
2023/06/22 10:24:53;;;;;;;5.18;3.67;;;41.70;84.80;;;;;;5011951;28;20057;-85
2023/06/22 10:27:58;;;;;;;9.80;4.00;;;41.10;83.70;;;;;;4997659;28;20049;-87
2023/06/22 10:31:05;;;;;;;6.55;4.32;;;41.10;82.60;;;;;;5013336;28;20045;-88
2023/06/22 10:34:09;;;;;;;9.57;3.97;;;40.60;87.30;;;;;;5005221;28;20041;-86
2023/06/22 10:37:14;;;;;;;7.82;3.20;;;42.00;86.80;;;;;;5012496;28;20041;-83
2023/06/22 10:40:18;;;;;;;7.88;3.45;;;42.80;81.00;;;;;;5009739;28;20045;-83
2023/06/22 10:43:22;;;;;;;8.93;3.10;;;41.50;77.30;;;;;;5009884;28;20045;-85
2023/06/22 10:46:27;;;;;;;6.90;3.40;;;41.50;78.60;;;;;;5011120;28;20385;-82
2023/06/22 10:49:32;;;;;;;6.18;3.30;;;39.90;78.50;;;;;;5008642;28;20045;-87
2023/06/22 10:52:37;;;;;;;5.22;2.90;;;38.20;80.80;;;;;;4991290;28;20121;-89
2023/06/22 10:55:41;;;;;;;7.45;3.17;;;39.90;79.60;;;;;;5013941;28;20495;-85
2023/06/22 10:58:46;;;;;;;7.00;3.00;;;38.80;80.60;;;;;;5003395;28;20045;-85
2023/06/22 11:01:50;;;;;;;4.13;2.60;;;38.90;82.00;;;;;;5007301;28;20108;-83
2023/06/22 11:04:54;;;;;;;5.15;3.00;;;40.70;80.70;;;;;;5013403;28;20488;-87
2023/06/22 11:07:59;;;;;;;6.35;3.08;;;39.80;81.10;;;;;;5016602;28;20052;-82
2023/06/22 11:11:02;;;;;;;9.23;3.45;;;38.40;78.00;;;;;;5011654;28;20041;-85
2023/06/22 11:14:06;;;;;;;6.78;3.10;;;39.00;81.60;;;;;;5003434;28;20041;-85
2023/06/22 11:17:11;;;;;;;5.90;2.95;;;37.80;78.70;;;;;;5016917;28;20049;-82
2023/06/22 11:20:15;;;;;;;11.80;3.15;;;37.90;78.00;;;;;;5014954;28;20045;-85
2023/06/22 11:23:19;;;;;;;6.65;2.97;;;39.30;74.30;;;;;;5016475;28;20056;-86
2023/06/22 11:26:23;;;;;;;4.35;2.72;;;39.60;73.40;;;;;;5004971;28;20092;-86
2023/06/22 11:29:31;;;;;;;7.30;3.05;;;38.20;73.20;;;;;;5013710;28;20133;-83
2023/06/22 11:32:35;;;;;;;11.68;3.28;;;39.10;74.90;;;;;;5015696;28;20049;-86
2023/06/22 11:35:39;;;;;;;8.55;3.92;;;36.70;78.10;;;;;;5009831;28;20531;-86
2023/06/22 11:38:44;;;;;;;5.18;3.22;;;36.40;76.40;;;;;;5012927;28;20049;-84
2023/06/22 11:41:49;;;;;;;7.75;3.15;;;37.90;79.10;;;;;;5007420;28;20045;-85
2023/06/22 11:44:53;;;;;;;7.03;3.00;;;38.20;77.50;;;;;;5009406;28;20045;-84
2023/06/22 11:48:48;;;;;;;7.55;2.90;;;39.00;74.90;;;;;;5013465;28;20060;-87
2023/06/22 11:51:52;;;;;;;9.90;2.80;;;39.90;75.00;;;;;;5012244;28;20503;-85
2023/06/22 11:54:56;;;;;;;13.40;3.45;;;40.80;76.60;;;;;;5017576;28;20389;-86
2023/06/22 11:58:03;;;;;;;9.32;2.95;;;40.50;73.80;;;;;;5009072;28;20065;-87
2023/06/22 12:01:07;;;;;;;5.88;3.13;;;39.50;73.50;;;;;;5006728;28;20053;-82
2023/06/22 12:04:11;;;;;;;8.25;3.08;;;38.50;74.80;;;;;;5008997;28;20048;-85
2023/06/22 12:07:17;;;;;;;9.45;3.17;;;37.70;75.60;;;;;;5006124;28;20049;-84
2023/06/22 12:10:26;;;;;;;13.85;3.83;;;38.30;75.90;;;;;;5018181;28;20075;-85
2023/06/22 12:13:29;;;;;;;8.93;3.85;;;37.10;75.40;;;;;;5009260;28;20041;-85
2023/06/22 12:16:33;;;;;;;9.75;3.22;;;36.90;78.40;;;;;;5013658;28;20040;-82
2023/06/22 12:19:37;;;;;;;11.20;3.38;;;37.80;77.10;;;;;;5009114;28;20044;-83
2023/06/22 12:22:42;;;;;;;14.70;3.83;;;38.00;75.40;;;;;;5010039;28;20389;-83
2023/06/22 12:25:45;;;;;;;9.82;3.35;;;37.20;76.80;;;;;;5000286;28;20050;-83
2023/06/22 12:28:49;;;;;;;11.63;3.63;;;37.60;77.60;;;;;;5012566;28;20507;-86
2023/06/22 12:31:53;;;;;;;11.27;4.00;;;37.60;78.00;;;;;;5011062;28;20049;-85
2023/06/22 12:34:59;;;;;;;7.82;3.17;;;37.30;80.00;;;;;;5007496;28;20511;-85
2023/06/22 12:38:03;;;;;;;15.98;4.00;;;38.50;78.60;;;;;;5022752;28;20492;-83
2023/06/22 12:41:07;;;;;;;7.28;3.85;;;38.70;77.70;;;;;;5021721;28;20040;-85
2023/06/22 12:44:11;;;;;;;16.75;4.20;;;37.60;78.80;;;;;;5010313;28;20051;-84
2023/06/22 12:47:15;;;;;;;10.07;4.03;;;37.60;79.00;;;;;;5021310;28;20045;-85
2023/06/22 12:50:19;;;;;;;18.05;4.47;;;37.10;78.00;;;;;;5011833;28;20053;-84
2023/06/22 12:53:23;;;;;;;9.45;4.55;;;37.00;79.80;;;;;;5011957;28;20049;-82
2023/06/22 12:56:27;;;;;;;9.55;4.20;;;36.90;80.90;;;;;;5012597;28;20049;-85
2023/06/22 12:59:31;;;;;;;33.17;4.78;;;36.60;80.50;;;;;;5015991;28;20041;-83
2023/06/22 13:02:35;;;;;;;24.63;5.07;;;36.70;80.50;;;;;;5007133;28;20488;-84
2023/06/22 13:05:39;;;;;;;8.02;3.78;;;36.80;82.60;;;;;;5010109;28;20044;-83
2023/06/22 13:08:45;;;;;;;11.88;3.70;;;36.20;82.90;;;;;;5026658;28;20388;-84
2023/06/22 13:11:52;;;;;;;14.45;4.35;;;37.00;80.60;;;;;;5019850;28;20053;-83
2023/06/22 13:14:56;;;;;;;15.82;4.30;;;37.50;82.00;;;;;;5025704;28;20048;-84
2023/06/22 13:18:01;;;;;;;10.32;4.03;;;37.40;82.50;;;;;;5025600;28;20385;-84
2023/06/22 13:21:05;;;;;;;16.67;3.70;;;37.40;81.50;;;;;;5002582;28;20546;-84
2023/06/22 13:24:09;;;;;;;14.05;3.85;;;37.40;83.20;;;;;;5015444;28;20044;-83
2023/06/22 13:27:13;;;;;;;9.98;3.55;;;37.40;81.30;;;;;;5015333;28;20037;-84
2023/06/22 13:30:17;;;;;;;16.05;4.50;;;36.90;79.70;;;;;;5015750;28;20049;-86
2023/06/22 13:33:20;;;;;;;12.32;3.80;;;36.80;80.80;;;;;;5023258;28;20044;-84
2023/06/22 13:36:30;;;;;;;13.77;3.83;;;37.20;80.50;;;;;;4998781;28;20049;-85
2023/06/22 13:39:34;;;;;;;11.35;3.72;;;37.50;83.70;;;;;;5004038;28;20040;-82
2023/06/22 13:42:38;;;;;;;14.55;4.45;;;36.40;82.40;;;;;;4996305;28;20049;-82
2023/06/22 13:45:43;;;;;;;12.27;3.88;;;37.00;83.90;;;;;;5003417;28;20389;-83
2023/06/22 13:48:46;;;;;;;12.38;4.10;;;36.10;85.30;;;;;;5008313;28;20052;-84
2023/06/22 13:51:50;;;;;;;19.30;3.88;;;36.60;82.00;;;;;;5020853;28;20592;-83
2023/06/22 13:54:54;;;;;;;11.68;4.15;;;36.20;82.90;;;;;;5015143;28;20392;-82
2023/06/22 13:57:58;;;;;;;14.70;4.20;;;36.10;83.40;;;;;;4995402;28;20060;-82
2023/06/22 14:01:02;;;;;;;9.77;4.00;;;36.20;84.00;;;;;;5025084;28;20044;-85
2023/06/22 14:04:06;;;;;;;18.02;4.25;;;36.30;82.90;;;;;;5014812;28;20117;-83
2023/06/22 14:07:10;;;;;;;17.73;4.38;;;36.30;82.10;;;;;;5013697;28;20113;-82
2023/06/22 14:10:14;;;;;;;17.08;4.88;;;36.30;85.40;;;;;;5010481;28;20044;-85
2023/06/22 14:13:18;;;;;;;15.18;3.83;;;36.00;84.60;;;;;;5032791;28;20037;-83
2023/06/22 14:16:22;;;;;;;13.27;4.00;;;35.80;84.50;;;;;;5035395;28;20044;-83
2023/06/22 14:19:26;;;;;;;13.88;4.70;;;35.70;85.00;;;;;;5034875;28;20048;-83
2023/06/22 14:22:30;;;;;;;12.13;4.45;;;35.40;85.10;;;;;;5036270;28;20048;-84
2023/06/22 14:25:35;;;;;;;17.10;5.65;;;35.60;86.10;;;;;;5032632;28;20037;-83
2023/06/22 14:28:39;;;;;;;15.55;4.05;;;35.60;86.90;;;;;;5002243;28;20044;-83
2023/06/22 14:31:46;;;;;;;8.80;4.18;;;35.70;86.30;;;;;;5026592;28;20041;-82
2023/06/22 14:34:50;;;;;;;8.75;4.18;;;35.90;86.40;;;;;;4990100;28;20041;-82
2023/06/22 14:37:54;;;;;;;20.73;4.97;;;35.70;86.20;;;;;;5022307;28;20040;-83
2023/06/22 14:40:58;;;;;;;14.60;4.45;;;35.70;87.90;;;;;;5011836;28;20408;-84
2023/06/22 14:44:03;;;;;;;13.52;4.22;;;35.30;85.60;;;;;;5023984;28;20044;-84
2023/06/22 14:47:07;;;;;;;13.80;4.43;;;35.00;87.50;;;;;;5019224;28;20041;-86
2023/06/22 14:50:11;;;;;;;17.05;4.07;;;35.00;87.70;;;;;;5023321;28;20052;-83
2023/06/22 14:53:15;;;;;;;14.90;4.15;;;34.90;88.20;;;;;;5008941;28;20070;-85
2023/06/22 14:56:19;;;;;;;18.10;4.97;;;35.00;88.90;;;;;;5015192;28;20053;-85
2023/06/22 14:59:23;;;;;;;9.38;3.88;;;35.10;88.80;;;;;;5013678;28;20049;-82
2023/06/22 15:02:27;;;;;;;13.02;4.55;;;34.90;87.00;;;;;;5015148;28;20053;-84
2023/06/22 15:05:30;;;;;;;10.90;4.25;;;34.80;88.10;;;;;;5014849;28;20041;-86
2023/06/22 15:08:36;;;;;;;16.88;4.57;;;34.80;88.90;;;;;;5014239;28;20061;-86
2023/06/22 15:11:40;;;;;;;10.73;4.30;;;34.90;88.40;;;;;;5013495;28;20060;-87
2023/06/22 15:14:45;;;;;;;14.50;4.45;;;35.00;90.10;;;;;;5013559;28;20057;-87
2023/06/22 15:17:48;;;;;;;15.15;4.15;;;35.10;90.40;;;;;;5013319;28;20049;-86
2023/06/22 15:20:53;;;;;;;17.02;4.57;;;35.20;90.10;;;;;;5013619;28;20056;-84
2023/06/22 15:23:57;;;;;;;13.30;4.20;;;35.20;90.60;;;;;;5013968;28;20044;-88
2023/06/22 15:27:02;;;;;;;15.90;4.70;;;35.40;90.70;;;;;;5013821;28;20053;-84
2023/06/22 15:30:07;;;;;;;16.55;4.63;;;35.20;91.90;;;;;;5013318;28;20049;-85
2023/06/22 15:33:11;;;;;;;11.73;4.22;;;35.10;92.80;;;;;;5013239;28;20053;-84
2023/06/22 15:36:14;;;;;;;19.73;4.25;;;34.60;91.80;;;;;;5013417;28;20081;-86
2023/06/22 15:39:19;;;;;;;12.60;4.70;;;33.90;91.60;;;;;;5013095;28;20504;-85
2023/06/22 15:42:23;;;;;;;15.82;4.15;;;33.50;92.40;;;;;;5013311;28;20389;-85
2023/06/22 15:45:27;;;;;;;15.23;4.45;;;33.20;91.60;;;;;;5013132;28;20040;-84
2023/06/22 15:48:31;;;;;;;17.17;4.30;;;33.00;91.40;;;;;;5013377;28;20060;-85
2023/06/22 15:51:35;;;;;;;20.33;5.03;;;32.80;90.70;;;;;;5015059;28;20523;-84
2023/06/22 15:54:39;;;;;;;17.88;4.53;;;32.60;88.10;;;;;;5013431;28;20056;-86
2023/06/22 15:57:46;;;;;;;19.58;4.75;;;32.40;86.30;;;;;;5013151;28;20061;-81